sensor_id;sensor_type;location;lat;lon;timestamp;pressure;altitude;pressure_sealevel;temperature;humidity
74637;BME280;63141;54.616;39.754;2023-02-15T00:00:05;100032.53;;;22.76;29.74
74637;BME280;63141;54.616;39.754;2023-02-15T00:03:16;100044.00;;;22.76;29.67
74637;BME280;63141;54.616;39.754;2023-02-15T00:06:18;100040.50;;;22.76;29.70
74637;BME280;63141;54.616;39.754;2023-02-15T00:09:19;100049.31;;;22.76;29.70
74637;BME280;63141;54.616;39.754;2023-02-15T00:12:20;100044.97;;;22.75;29.68
74637;BME280;63141;54.616;39.754;2023-02-15T00:15:22;100046.75;;;22.75;29.71
74637;BME280;63141;54.616;39.754;2023-02-15T00:18:23;100048.47;;;22.76;29.64
74637;BME280;63141;54.616;39.754;2023-02-15T00:21:24;100047.63;;;22.75;29.85
74637;BME280;63141;54.616;39.754;2023-02-15T00:24:26;100053.78;;;22.76;29.74
74637;BME280;63141;54.616;39.754;2023-02-15T00:27:27;100046.75;;;22.75;29.76
74637;BME280;63141;54.616;39.754;2023-02-15T00:30:29;100060.88;;;22.75;29.77
74637;BME280;63141;54.616;39.754;2023-02-15T00:33:32;100046.75;;;22.75;29.76
74637;BME280;63141;54.616;39.754;2023-02-15T00:36:33;100054.63;;;22.76;29.72
74637;BME280;63141;54.616;39.754;2023-02-15T00:39:34;100057.38;;;22.75;29.70
74637;BME280;63141;54.616;39.754;2023-02-15T00:42:35;100057.38;;;22.75;29.77
74637;BME280;63141;54.616;39.754;2023-02-15T00:45:37;100061.75;;;22.76;29.76
74637;BME280;63141;54.616;39.754;2023-02-15T00:48:38;100060.03;;;22.75;29.75
74637;BME280;63141;54.616;39.754;2023-02-15T00:51:40;100053.78;;;22.76;29.70
74637;BME280;63141;54.616;39.754;2023-02-15T00:54:41;100058.22;;;22.75;29.68
74637;BME280;63141;54.616;39.754;2023-02-15T00:57:43;100059.09;;;22.76;29.75
74637;BME280;63141;54.616;39.754;2023-02-15T01:00:47;100068.84;;;22.75;29.90
74637;BME280;63141;54.616;39.754;2023-02-15T01:03:49;100075.03;;;22.76;29.79
74637;BME280;63141;54.616;39.754;2023-02-15T01:06:52;100063.53;;;22.75;29.62
74637;BME280;63141;54.616;39.754;2023-02-15T01:09:54;100076.75;;;22.77;29.65
74637;BME280;63141;54.616;39.754;2023-02-15T01:12:56;100070.66;;;22.75;29.73
74637;BME280;63141;54.616;39.754;2023-02-15T01:15:57;100065.34;;;22.75;29.75
74637;BME280;63141;54.616;39.754;2023-02-15T01:19:00;100070.66;;;22.75;29.73
74637;BME280;63141;54.616;39.754;2023-02-15T01:22:03;100062.69;;;22.75;29.77
74637;BME280;63141;54.616;39.754;2023-02-15T01:25:07;100074.16;;;22.75;29.63
74637;BME280;63141;54.616;39.754;2023-02-15T01:28:08;100073.31;;;22.75;29.75
74637;BME280;63141;54.616;39.754;2023-02-15T01:31:14;100077.69;;;22.76;29.68
74637;BME280;63141;54.616;39.754;2023-02-15T01:34:16;100075.03;;;22.76;29.75
74637;BME280;63141;54.616;39.754;2023-02-15T01:37:19;100075.88;;;22.76;29.72
74637;BME280;63141;54.616;39.754;2023-02-15T01:40:21;100075.03;;;22.76;29.61
74637;BME280;63141;54.616;39.754;2023-02-15T01:43:39;100068.78;;;22.77;29.83
74637;BME280;63141;54.616;39.754;2023-02-15T01:46:48;100082.97;;;22.76;29.75
74637;BME280;63141;54.616;39.754;2023-02-15T01:50:00;100090.03;;;22.77;29.67
74637;BME280;63141;54.616;39.754;2023-02-15T01:56:25;100091.81;;;22.76;29.70
74637;BME280;63141;54.616;39.754;2023-02-15T01:59:28;100090.94;;;22.76;29.65
74637;BME280;63141;54.616;39.754;2023-02-15T02:02:33;100086.50;;;22.76;29.56
74637;BME280;63141;54.616;39.754;2023-02-15T02:05:35;100088.28;;;22.76;29.69
74637;BME280;63141;54.616;39.754;2023-02-15T02:08:40;100098.00;;;22.77;29.56
74637;BME280;63141;54.616;39.754;2023-02-15T02:11:46;100102.44;;;22.76;29.75
74637;BME280;63141;54.616;39.754;2023-02-15T02:14:49;100096.25;;;22.76;29.76
74637;BME280;63141;54.616;39.754;2023-02-15T02:44:25;100114.78;;;22.77;29.51
74637;BME280;63141;54.616;39.754;2023-02-15T02:50:40;100116.59;;;22.77;29.67
74637;BME280;63141;54.616;39.754;2023-02-15T02:53:41;100112.19;;;22.76;29.72
74637;BME280;63141;54.616;39.754;2023-02-15T02:56:46;100112.19;;;22.76;29.68
74637;BME280;63141;54.616;39.754;2023-02-15T02:59:50;100119.25;;;22.77;29.55
74637;BME280;63141;54.616;39.754;2023-02-15T03:03:12;100120.09;;;22.77;29.58
74637;BME280;63141;54.616;39.754;2023-02-15T03:06:23;100113.94;;;22.77;29.74
74637;BME280;63141;54.616;39.754;2023-02-15T03:09:33;100113.94;;;22.77;29.58
74637;BME280;63141;54.616;39.754;2023-02-15T03:12:43;100120.97;;;22.78;29.58
74637;BME280;63141;54.616;39.754;2023-02-15T03:15:45;100129.88;;;22.77;29.57
74637;BME280;63141;54.616;39.754;2023-02-15T03:19:10;100127.22;;;22.77;29.64
74637;BME280;63141;54.616;39.754;2023-02-15T03:22:18;100131.59;;;22.78;29.55
74637;BME280;63141;54.616;39.754;2023-02-15T03:25:31;100128.94;;;22.78;29.76
74637;BME280;63141;54.616;39.754;2023-02-15T03:28:42;100135.19;;;22.77;29.67
74637;BME280;63141;54.616;39.754;2023-02-15T03:31:49;100140.50;;;22.77;29.69
74637;BME280;63141;54.616;39.754;2023-02-15T03:34:52;100139.59;;;22.76;29.64
74637;BME280;63141;54.616;39.754;2023-02-15T03:37:58;100144.06;;;22.76;29.65
74637;BME280;63141;54.616;39.754;2023-02-15T03:41:01;100134.38;;;22.75;29.61
74637;BME280;63141;54.616;39.754;2023-02-15T03:44:18;100145.91;;;22.74;29.60
74637;BME280;63141;54.616;39.754;2023-02-15T03:47:27;100151.16;;;22.75;29.62
74637;BME280;63141;54.616;39.754;2023-02-15T03:50:32;100152.97;;;22.75;29.65
74637;BME280;63141;54.616;39.754;2023-02-15T03:53:55;100151.09;;;22.77;29.61
74637;BME280;63141;54.616;39.754;2023-02-15T03:56:58;100153.75;;;22.77;29.54
74637;BME280;63141;54.616;39.754;2023-02-15T04:00:21;100152.03;;;22.76;29.64
74637;BME280;63141;54.616;39.754;2023-02-15T04:04:01;100152.97;;;22.75;29.51
74637;BME280;63141;54.616;39.754;2023-02-15T04:07:06;100160.97;;;22.73;29.57
74637;BME280;63141;54.616;39.754;2023-02-15T04:10:08;100155.72;;;22.72;29.56
74637;BME280;63141;54.616;39.754;2023-02-15T04:13:31;100160.22;;;22.70;29.47
74637;BME280;63141;54.616;39.754;2023-02-15T04:16:33;100165.53;;;22.70;29.34
74637;BME280;63141;54.616;39.754;2023-02-15T04:19:34;100153.22;;;22.69;29.41
74637;BME280;63141;54.616;39.754;2023-02-15T04:22:54;100159.47;;;22.68;29.37
74637;BME280;63141;54.616;39.754;2023-02-15T04:26:14;100172.75;;;22.68;29.37
74637;BME280;63141;54.616;39.754;2023-02-15T04:29:16;100172.75;;;22.68;29.37
74637;BME280;63141;54.616;39.754;2023-02-15T04:32:17;100178.81;;;22.70;29.32
74637;BME280;63141;54.616;39.754;2023-02-15T04:35:18;100177.06;;;22.70;29.36
74637;BME280;63141;54.616;39.754;2023-02-15T04:38:20;100182.38;;;22.70;29.65
74637;BME280;63141;54.616;39.754;2023-02-15T04:41:21;100177.06;;;22.70;29.52
74637;BME280;63141;54.616;39.754;2023-02-15T04:44:22;100178.75;;;22.71;29.53
74637;BME280;63141;54.616;39.754;2023-02-15T04:47:24;100177.91;;;22.71;29.54
74637;BME280;63141;54.616;39.754;2023-02-15T04:50:25;100182.38;;;22.70;29.67
74637;BME280;63141;54.616;39.754;2023-02-15T04:53:26;100184.13;;;22.70;29.81
74637;BME280;63141;54.616;39.754;2023-02-15T04:56:28;100184.94;;;22.72;29.78
74637;BME280;63141;54.616;39.754;2023-02-15T04:59:31;100191.97;;;22.73;29.97
74637;BME280;63141;54.616;39.754;2023-02-15T05:02:32;100195.56;;;22.72;30.05
74637;BME280;63141;54.616;39.754;2023-02-15T05:05:38;100200.38;;;22.62;29.15
74637;BME280;63141;54.616;39.754;2023-02-15T05:08:40;100199.34;;;22.44;28.53
74637;BME280;63141;54.616;39.754;2023-02-15T05:11:41;100196.34;;;22.31;28.33
74637;BME280;63141;54.616;39.754;2023-02-15T05:14:43;100199.16;;;22.27;28.00
74637;BME280;63141;54.616;39.754;2023-02-15T05:17:44;100200.22;;;22.23;28.16
74637;BME280;63141;54.616;39.754;2023-02-15T05:20:45;100203.91;;;22.17;27.93
74637;BME280;63141;54.616;39.754;2023-02-15T05:23:47;100211.19;;;22.12;27.92
74637;BME280;63141;54.616;39.754;2023-02-15T05:26:48;100209.56;;;22.08;27.58
74637;BME280;63141;54.616;39.754;2023-02-15T05:30:08;100214.03;;;22.07;27.65
74637;BME280;63141;54.616;39.754;2023-02-15T05:33:12;100220.94;;;22.11;27.95
74637;BME280;63141;54.616;39.754;2023-02-15T05:36:13;100213.66;;;22.16;27.80
74637;BME280;63141;54.616;39.754;2023-02-15T05:39:15;100216.16;;;22.21;27.94
74637;BME280;63141;54.616;39.754;2023-02-15T05:42:16;100222.25;;;22.25;27.80
74637;BME280;63141;54.616;39.754;2023-02-15T05:45:17;100221.19;;;22.29;27.72
74637;BME280;63141;54.616;39.754;2023-02-15T05:48:21;100218.41;;;22.32;27.78
74637;BME280;63141;54.616;39.754;2023-02-15T05:51:22;100226.31;;;22.33;27.59
74637;BME280;63141;54.616;39.754;2023-02-15T05:54:24;100223.59;;;22.35;27.57
74637;BME280;63141;54.616;39.754;2023-02-15T05:57:26;100220.03;;;22.36;27.51
74637;BME280;63141;54.616;39.754;2023-02-15T06:00:30;100219.09;;;22.37;27.49
74637;BME280;63141;54.616;39.754;2023-02-15T06:03:31;100221.69;;;22.38;27.19
74637;BME280;63141;54.616;39.754;2023-02-15T06:06:35;100222.50;;;22.41;27.04
74637;BME280;63141;54.616;39.754;2023-02-15T06:09:37;100218.06;;;22.41;27.24
74637;BME280;63141;54.616;39.754;2023-02-15T06:12:38;100221.44;;;22.45;27.10
74637;BME280;63141;54.616;39.754;2023-02-15T06:15:39;100230.28;;;22.45;27.08
74637;BME280;63141;54.616;39.754;2023-02-15T06:18:41;100231.84;;;22.49;26.99
74637;BME280;63141;54.616;39.754;2023-02-15T06:21:42;100228.28;;;22.50;27.06
74637;BME280;63141;54.616;39.754;2023-02-15T06:24:43;100224.69;;;22.51;27.28
74637;BME280;63141;54.616;39.754;2023-02-15T06:27:45;100232.66;;;22.51;27.25
74637;BME280;63141;54.616;39.754;2023-02-15T06:30:46;100233.47;;;22.53;27.36
74637;BME280;63141;54.616;39.754;2023-02-15T06:33:47;100228.16;;;22.53;27.32
74637;BME280;63141;54.616;39.754;2023-02-15T06:36:49;100229.91;;;22.54;27.36
74637;BME280;63141;54.616;39.754;2023-02-15T06:39:50;100233.41;;;22.55;27.35
74637;BME280;63141;54.616;39.754;2023-02-15T06:42:51;100234.22;;;22.57;27.38
74637;BME280;63141;54.616;39.754;2023-02-15T06:45:53;100243.03;;;22.57;27.45
74637;BME280;63141;54.616;39.754;2023-02-15T06:48:54;100228.91;;;22.57;27.38
74637;BME280;63141;54.616;39.754;2023-02-15T06:51:56;100236.78;;;22.58;27.43
74637;BME280;63141;54.616;39.754;2023-02-15T06:54:57;100242.09;;;22.58;27.64
74637;BME280;63141;54.616;39.754;2023-02-15T06:57:58;100235.88;;;22.59;27.56
74637;BME280;63141;54.616;39.754;2023-02-15T07:00:59;100240.25;;;22.61;27.53
74637;BME280;63141;54.616;39.754;2023-02-15T07:04:06;100242.00;;;22.62;27.66
74637;BME280;63141;54.616;39.754;2023-02-15T07:07:09;100238.41;;;22.63;27.64
74637;BME280;63141;54.616;39.754;2023-02-15T07:10:11;100239.34;;;22.62;27.60
74637;BME280;63141;54.616;39.754;2023-02-15T07:13:12;100233.09;;;22.63;27.57
74637;BME280;63141;54.616;39.754;2023-02-15T07:16:14;100243.72;;;22.63;27.69
74637;BME280;63141;54.616;39.754;2023-02-15T07:19:15;100241.88;;;22.65;27.74
74637;BME280;63141;54.616;39.754;2023-02-15T07:22:17;100231.25;;;22.65;27.68
74637;BME280;63141;54.616;39.754;2023-02-15T07:25:18;100242.72;;;22.65;27.82
74637;BME280;63141;54.616;39.754;2023-02-15T07:28:20;100240.06;;;22.65;27.74
74637;BME280;63141;54.616;39.754;2023-02-15T07:31:21;100244.47;;;22.66;27.85
74637;BME280;63141;54.616;39.754;2023-02-15T07:34:22;100233.00;;;22.66;27.86
74637;BME280;63141;54.616;39.754;2023-02-15T07:37:24;100230.25;;;22.67;27.98
74637;BME280;63141;54.616;39.754;2023-02-15T07:40:26;100239.09;;;22.68;27.99
74637;BME280;63141;54.616;39.754;2023-02-15T07:43:28;100231.16;;;22.68;27.96
74637;BME280;63141;54.616;39.754;2023-02-15T07:46:30;100233.81;;;22.68;27.92
74637;BME280;63141;54.616;39.754;2023-02-15T07:49:31;100244.34;;;22.69;27.95
74637;BME280;63141;54.616;39.754;2023-02-15T07:52:33;100243.47;;;22.69;27.88
74637;BME280;63141;54.616;39.754;2023-02-15T07:55:34;100239.88;;;22.70;28.05
74637;BME280;63141;54.616;39.754;2023-02-15T07:58:36;100245.19;;;22.70;28.00
74637;BME280;63141;54.616;39.754;2023-02-15T08:01:52;100246.94;;;22.71;27.96
74637;BME280;63141;54.616;39.754;2023-02-15T08:04:59;100248.66;;;22.72;28.03
74637;BME280;63141;54.616;39.754;2023-02-15T08:08:01;100247.75;;;22.73;27.98
74637;BME280;63141;54.616;39.754;2023-02-15T08:14:22;100250.44;;;22.71;27.93
74637;BME280;63141;54.616;39.754;2023-02-15T08:17:23;100253.97;;;22.72;28.01
74637;BME280;63141;54.616;39.754;2023-02-15T08:20:24;100257.50;;;22.72;27.93
74637;BME280;63141;54.616;39.754;2023-02-15T08:23:25;100250.41;;;22.73;28.02
74637;BME280;63141;54.616;39.754;2023-02-15T08:26:28;100256.56;;;22.73;27.98
74637;BME280;63141;54.616;39.754;2023-02-15T08:29:30;100261.88;;;22.73;28.25
74637;BME280;63141;54.616;39.754;2023-02-15T08:32:32;100260.06;;;22.74;28.15
74637;BME280;63141;54.616;39.754;2023-02-15T08:35:33;100260.94;;;22.74;28.05
74637;BME280;63141;54.616;39.754;2023-02-15T08:38:35;100268.03;;;22.74;28.13
74637;BME280;63141;54.616;39.754;2023-02-15T08:41:38;100266.19;;;22.76;28.30
74637;BME280;63141;54.616;39.754;2023-02-15T08:44:42;100265.34;;;22.75;28.22
74637;BME280;63141;54.616;39.754;2023-02-15T08:47:43;100272.44;;;22.75;28.02
74637;BME280;63141;54.616;39.754;2023-02-15T08:50:44;100267.13;;;22.75;28.11
74637;BME280;63141;54.616;39.754;2023-02-15T08:53:48;100270.66;;;22.75;27.98
74637;BME280;63141;54.616;39.754;2023-02-15T08:56:50;100270.66;;;22.75;28.16
74637;BME280;63141;54.616;39.754;2023-02-15T08:59:51;100277.66;;;22.76;28.21
74637;BME280;63141;54.616;39.754;2023-02-15T09:02:55;100275.00;;;22.76;28.28
74637;BME280;63141;54.616;39.754;2023-02-15T09:06:02;100280.31;;;22.76;28.10
74637;BME280;63141;54.616;39.754;2023-02-15T09:09:04;100279.47;;;22.76;28.24
74637;BME280;63141;54.616;39.754;2023-02-15T09:12:06;100286.53;;;22.77;28.27
74637;BME280;63141;54.616;39.754;2023-02-15T09:15:07;100285.59;;;22.78;28.23
74637;BME280;63141;54.616;39.754;2023-02-15T09:18:09;100285.59;;;22.78;28.21
74637;BME280;63141;54.616;39.754;2023-02-15T09:21:16;100281.13;;;22.78;28.33
74637;BME280;63141;54.616;39.754;2023-02-15T09:24:18;100288.25;;;22.78;28.25
74637;BME280;63141;54.616;39.754;2023-02-15T09:27:19;100297.91;;;22.79;28.28
74637;BME280;63141;54.616;39.754;2023-02-15T09:30:21;100297.91;;;22.79;28.31
74637;BME280;63141;54.616;39.754;2023-02-15T09:33:22;100295.25;;;22.79;28.20
74637;BME280;63141;54.616;39.754;2023-02-15T09:39:29;100299.72;;;22.78;28.14
74637;BME280;63141;54.616;39.754;2023-02-15T09:42:47;100299.66;;;22.80;28.30
74637;BME280;63141;54.616;39.754;2023-02-15T09:46:05;100299.66;;;22.80;28.44
74637;BME280;63141;54.616;39.754;2023-02-15T09:49:54;100303.13;;;22.82;28.23
74637;BME280;63141;54.616;39.754;2023-02-15T09:56:29;100303.13;;;22.82;28.15
74637;BME280;63141;54.616;39.754;2023-02-15T10:16:33;100319.06;;;22.82;28.36
74637;BME280;63141;54.616;39.754;2023-02-15T10:20:08;100334.19;;;22.80;28.25
74637;BME280;63141;54.616;39.754;2023-02-15T10:26:27;100331.75;;;22.52;27.23
74637;BME280;63141;54.616;39.754;2023-02-15T10:29:36;100336.78;;;22.36;26.76
74637;BME280;63141;54.616;39.754;2023-02-15T10:32:58;100335.69;;;22.16;26.26
74637;BME280;63141;54.616;39.754;2023-02-15T10:39:40;100339.63;;;21.81;25.81
74637;BME280;63141;54.616;39.754;2023-02-15T10:59:43;100359.63;;;21.38;24.97
74637;BME280;63141;54.616;39.754;2023-02-15T11:06:14;100354.59;;;21.30;24.77
74637;BME280;63141;54.616;39.754;2023-02-15T11:09:18;100360.91;;;21.26;24.42
74637;BME280;63141;54.616;39.754;2023-02-15T11:12:24;100368.03;;;21.24;24.59
74637;BME280;63141;54.616;39.754;2023-02-15T11:15:30;100369.16;;;21.17;24.55
74637;BME280;63141;54.616;39.754;2023-02-15T11:18:58;100378.09;;;21.13;24.25
74637;BME280;63141;54.616;39.754;2023-02-15T11:22:05;100374.75;;;21.08;24.19
74637;BME280;63141;54.616;39.754;2023-02-15T11:25:19;100373.97;;;21.04;24.10
74637;BME280;63141;54.616;39.754;2023-02-15T11:28:34;100375.75;;;21.04;23.91
74637;BME280;63141;54.616;39.754;2023-02-15T11:31:50;100373.97;;;21.04;24.03
74637;BME280;63141;54.616;39.754;2023-02-15T11:38:19;100383.81;;;21.01;23.91
74637;BME280;63141;54.616;39.754;2023-02-15T11:41:27;100390.00;;;21.00;23.81
74637;BME280;63141;54.616;39.754;2023-02-15T11:44:39;100387.44;;;20.97;23.78
74637;BME280;63141;54.616;39.754;2023-02-15T11:47:42;100401.59;;;20.96;23.89
74637;BME280;63141;54.616;39.754;2023-02-15T11:50:44;100390.16;;;20.93;24.13
74637;BME280;63141;54.616;39.754;2023-02-15T11:53:46;100397.75;;;21.06;24.49
74637;BME280;63141;54.616;39.754;2023-02-15T11:56:48;100404.28;;;21.22;24.67
74637;BME280;63141;54.616;39.754;2023-02-15T11:59:55;100402.06;;;21.37;24.90
74637;BME280;63141;54.616;39.754;2023-02-15T12:02:57;100394.66;;;21.48;24.59
74637;BME280;63141;54.616;39.754;2023-02-15T12:06:05;100404.88;;;21.60;24.63
74637;BME280;63141;54.616;39.754;2023-02-15T12:09:44;100404.56;;;21.69;24.72
74637;BME280;63141;54.616;39.754;2023-02-15T12:12:47;100409.53;;;21.79;25.07
74637;BME280;63141;54.616;39.754;2023-02-15T12:15:51;100419.03;;;21.86;25.29
74637;BME280;63141;54.616;39.754;2023-02-15T12:18:56;100416.13;;;21.92;25.53
74637;BME280;63141;54.616;39.754;2023-02-15T12:21:59;100425.69;;;21.98;25.63
74637;BME280;63141;54.616;39.754;2023-02-15T12:25:19;100432.53;;;22.03;25.97
74637;BME280;63141;54.616;39.754;2023-02-15T12:31:47;100434.88;;;22.12;26.13
74637;BME280;63141;54.616;39.754;2023-02-15T12:34:51;100433.03;;;22.14;26.18
74637;BME280;63141;54.616;39.754;2023-02-15T12:41:24;100448.88;;;22.17;26.17
74637;BME280;63141;54.616;39.754;2023-02-15T12:44:28;100453.25;;;22.18;26.15
74637;BME280;63141;54.616;39.754;2023-02-15T12:47:31;100447.06;;;22.18;26.23
74637;BME280;63141;54.616;39.754;2023-02-15T12:50:32;100453.19;;;22.20;26.23
74637;BME280;63141;54.616;39.754;2023-02-15T12:53:36;100465.56;;;22.21;26.33
74637;BME280;63141;54.616;39.754;2023-02-15T12:56:37;100461.09;;;22.22;26.44
74637;BME280;63141;54.616;39.754;2023-02-15T13:00:00;100469.03;;;22.23;26.22
74637;BME280;63141;54.616;39.754;2023-02-15T13:03:03;100471.63;;;22.25;26.30
74637;BME280;63141;54.616;39.754;2023-02-15T13:06:10;100478.66;;;22.26;26.46
74637;BME280;63141;54.616;39.754;2023-02-15T13:09:19;100485.72;;;22.27;26.39
74637;BME280;63141;54.616;39.754;2023-02-15T13:12:28;100487.44;;;22.28;26.33
74637;BME280;63141;54.616;39.754;2023-02-15T13:15:37;100493.59;;;22.28;26.53
74637;BME280;63141;54.616;39.754;2023-02-15T13:18:44;100501.53;;;22.30;26.54
74637;BME280;63141;54.616;39.754;2023-02-15T13:21:47;100502.38;;;22.30;26.51
74637;BME280;63141;54.616;39.754;2023-02-15T13:24:59;100506.72;;;22.33;26.47
74637;BME280;63141;54.616;39.754;2023-02-15T13:28:03;100511.94;;;22.36;26.60
74637;BME280;63141;54.616;39.754;2023-02-15T13:31:13;100518.09;;;22.36;26.75
74637;BME280;63141;54.616;39.754;2023-02-15T13:40:50;100525.91;;;22.41;27.17
74637;BME280;63141;54.616;39.754;2023-02-15T13:47:35;100540.03;;;22.42;27.07
74637;BME280;63141;54.616;39.754;2023-02-15T13:50:42;100543.53;;;22.42;27.18
74637;BME280;63141;54.616;39.754;2023-02-15T14:00:48;100554.13;;;22.44;27.16
74637;BME280;63141;54.616;39.754;2023-02-15T14:07:52;100555.84;;;22.45;27.28
74637;BME280;63141;54.616;39.754;2023-02-15T14:17:47;100576.16;;;22.46;27.27
74637;BME280;63141;54.616;39.754;2023-02-15T14:21:08;100572.56;;;22.47;27.28
74637;BME280;63141;54.616;39.754;2023-02-15T14:24:40;100584.88;;;22.49;27.22
74637;BME280;63141;54.616;39.754;2023-02-15T14:28:16;100582.22;;;22.49;27.39
74637;BME280;63141;54.616;39.754;2023-02-15T14:31:28;100592.84;;;22.49;27.26
74637;BME280;63141;54.616;39.754;2023-02-15T14:34:52;100589.28;;;22.50;27.26
74637;BME280;63141;54.616;39.754;2023-02-15T14:41:25;100599.91;;;22.50;27.13
74637;BME280;63141;54.616;39.754;2023-02-15T14:44:43;100605.19;;;22.50;27.38
74637;BME280;63141;54.616;39.754;2023-02-15T14:57:58;100625.47;;;22.53;27.43
74637;BME280;63141;54.616;39.754;2023-02-15T15:01:10;100621.00;;;22.53;27.36
74637;BME280;63141;54.616;39.754;2023-02-15T15:04:21;100633.38;;;22.54;27.33
74637;BME280;63141;54.616;39.754;2023-02-15T15:07:35;100636.03;;;22.54;27.37
74637;BME280;63141;54.616;39.754;2023-02-15T15:10:46;100638.69;;;22.54;27.69
74637;BME280;63141;54.616;39.754;2023-02-15T15:13:58;100640.41;;;22.55;27.70
74637;BME280;63141;54.616;39.754;2023-02-15T15:17:05;100644.88;;;22.55;27.30
74637;BME280;63141;54.616;39.754;2023-02-15T15:23:43;100646.59;;;22.56;27.40
74637;BME280;63141;54.616;39.754;2023-02-15T15:26:45;100647.47;;;22.56;27.46
74637;BME280;63141;54.616;39.754;2023-02-15T15:29:51;100651.00;;;22.57;27.57
74637;BME280;63141;54.616;39.754;2023-02-15T15:42:48;100672.16;;;22.58;27.58
74637;BME280;63141;54.616;39.754;2023-02-15T15:49:14;100682.78;;;22.58;27.59
74637;BME280;63141;54.616;39.754;2023-02-15T15:52:18;100686.38;;;22.57;27.56
74637;BME280;63141;54.616;39.754;2023-02-15T15:55:23;100683.66;;;22.59;27.50
74637;BME280;63141;54.616;39.754;2023-02-15T15:58:25;100691.56;;;22.61;27.55
74637;BME280;63141;54.616;39.754;2023-02-15T16:01:31;100698.72;;;22.58;27.57
74637;BME280;63141;54.616;39.754;2023-02-15T16:04:35;100695.16;;;22.59;27.63
74637;BME280;63141;54.616;39.754;2023-02-15T16:07:40;100702.19;;;22.61;27.48
74637;BME280;63141;54.616;39.754;2023-02-15T16:10:42;100702.25;;;22.59;27.58
74637;BME280;63141;54.616;39.754;2023-02-15T16:13:44;100707.50;;;22.61;27.75
74637;BME280;63141;54.616;39.754;2023-02-15T16:16:49;100712.81;;;22.61;27.62
74637;BME280;63141;54.616;39.754;2023-02-15T16:20:06;100713.69;;;22.61;27.84
74637;BME280;63141;54.616;39.754;2023-02-15T16:27:03;100722.53;;;22.62;27.67
74637;BME280;63141;54.616;39.754;2023-02-15T16:30:30;100719.88;;;22.62;27.68
74637;BME280;63141;54.616;39.754;2023-02-15T16:33:37;100721.69;;;22.59;27.84
74637;BME280;63141;54.616;39.754;2023-02-15T16:36:39;100726.16;;;22.59;27.90
74637;BME280;63141;54.616;39.754;2023-02-15T16:39:41;100724.41;;;22.58;27.90
74637;BME280;63141;54.616;39.754;2023-02-15T16:42:43;100732.31;;;22.59;27.92
74637;BME280;63141;54.616;39.754;2023-02-15T16:45:45;100735.84;;;22.60;27.98
74637;BME280;63141;54.616;39.754;2023-02-15T16:48:49;100737.59;;;22.61;27.89
74637;BME280;63141;54.616;39.754;2023-02-15T16:52:02;100748.13;;;22.63;28.03
74637;BME280;63141;54.616;39.754;2023-02-15T16:55:25;100748.13;;;22.63;28.00
74637;BME280;63141;54.616;39.754;2023-02-15T16:58:39;100737.50;;;22.63;28.41
74637;BME280;63141;54.616;39.754;2023-02-15T17:01:45;100744.59;;;22.64;28.53
74637;BME280;63141;54.616;39.754;2023-02-15T17:05:02;100739.16;;;22.67;28.99
74637;BME280;63141;54.616;39.754;2023-02-15T17:08:17;100744.28;;;22.73;29.53
74637;BME280;63141;54.616;39.754;2023-02-15T17:11:22;100752.97;;;22.78;29.60
74637;BME280;63141;54.616;39.754;2023-02-15T17:14:28;100748.28;;;22.86;29.60
74637;BME280;63141;54.616;39.754;2023-02-15T17:17:31;100747.03;;;22.96;29.64
74637;BME280;63141;54.616;39.754;2023-02-15T17:20:33;100748.25;;;23.13;29.52
74637;BME280;63141;54.616;39.754;2023-02-15T17:23:47;100758.25;;;23.31;29.34
74637;BME280;63141;54.616;39.754;2023-02-15T17:26:55;100754.13;;;23.48;29.37
74637;BME280;63141;54.616;39.754;2023-02-15T17:30:13;100760.66;;;23.64;29.31
74637;BME280;63141;54.616;39.754;2023-02-15T17:33:24;100754.91;;;23.76;29.27
74637;BME280;63141;54.616;39.754;2023-02-15T17:36:31;100755.38;;;23.88;29.15
74637;BME280;63141;54.616;39.754;2023-02-15T17:39:32;100756.81;;;23.96;28.72
74637;BME280;63141;54.616;39.754;2023-02-15T17:42:34;100755.66;;;24.03;28.96
74637;BME280;63141;54.616;39.754;2023-02-15T17:45:47;100758.94;;;24.10;28.67
74637;BME280;63141;54.616;39.754;2023-02-15T17:48:51;100760.44;;;24.17;28.64
74637;BME280;63141;54.616;39.754;2023-02-15T17:51:53;100762.94;;;24.22;28.34
74637;BME280;63141;54.616;39.754;2023-02-15T17:54:56;100761.81;;;24.28;28.43
74637;BME280;63141;54.616;39.754;2023-02-15T17:58:18;100769.56;;;24.34;28.59
74637;BME280;63141;54.616;39.754;2023-02-15T18:01:22;100769.44;;;24.37;28.53
74637;BME280;63141;54.616;39.754;2023-02-15T18:04:42;100766.66;;;24.40;28.60
74637;BME280;63141;54.616;39.754;2023-02-15T18:08:14;100772.72;;;24.43;28.54
74637;BME280;63141;54.616;39.754;2023-02-15T18:11:34;100775.69;;;24.36;28.41
74637;BME280;63141;54.616;39.754;2023-02-15T18:14:36;100781.72;;;24.17;28.64
74637;BME280;63141;54.616;39.754;2023-02-15T18:17:44;100784.97;;;24.02;28.73
74637;BME280;63141;54.616;39.754;2023-02-15T18:20:46;100787.25;;;23.89;28.96
74637;BME280;63141;54.616;39.754;2023-02-15T18:23:48;100790.28;;;23.78;29.04
74637;BME280;63141;54.616;39.754;2023-02-15T18:26:50;100800.28;;;23.70;29.00
74637;BME280;63141;54.616;39.754;2023-02-15T18:29:51;100796.16;;;23.61;29.21
74637;BME280;63141;54.616;39.754;2023-02-15T18:32:55;100798.22;;;23.55;29.19
74637;BME280;63141;54.616;39.754;2023-02-15T18:35:57;100793.09;;;23.49;28.94
74637;BME280;63141;54.616;39.754;2023-02-15T18:38:59;100799.47;;;23.43;28.94